sensor_id;sensor_type;location;lat;lon;timestamp;temperature;humidity
52275;DHT22;38228;50.940;4.024;2022-09-16T00:00:33;14.60;99.90
52275;DHT22;38228;50.940;4.024;2022-09-16T00:02:59;14.70;99.90
52275;DHT22;38228;50.940;4.024;2022-09-16T00:05:25;14.60;99.90
52275;DHT22;38228;50.940;4.024;2022-09-16T00:07:51;14.60;99.90
52275;DHT22;38228;50.940;4.024;2022-09-16T00:10:16;14.70;99.90
52275;DHT22;38228;50.940;4.024;2022-09-16T00:12:42;14.60;99.90
52275;DHT22;38228;50.940;4.024;2022-09-16T00:15:09;14.60;99.90
52275;DHT22;38228;50.940;4.024;2022-09-16T00:17:34;14.60;99.90
52275;DHT22;38228;50.940;4.024;2022-09-16T00:20:02;14.50;99.90
52275;DHT22;38228;50.940;4.024;2022-09-16T00:22:28;14.40;99.90
52275;DHT22;38228;50.940;4.024;2022-09-16T00:24:54;14.50;99.90
52275;DHT22;38228;50.940;4.024;2022-09-16T00:27:19;14.40;99.90
52275;DHT22;38228;50.940;4.024;2022-09-16T00:29:45;14.40;99.90
52275;DHT22;38228;50.940;4.024;2022-09-16T00:32:11;14.20;99.90
52275;DHT22;38228;50.940;4.024;2022-09-16T00:34:36;14.20;99.90
52275;DHT22;38228;50.940;4.024;2022-09-16T00:37:03;14.00;99.90
52275;DHT22;38228;50.940;4.024;2022-09-16T00:39:29;14.10;99.90
52275;DHT22;38228;50.940;4.024;2022-09-16T00:41:54;14.10;99.90
52275;DHT22;38228;50.940;4.024;2022-09-16T00:47:44;13.90;99.90
52275;DHT22;38228;50.940;4.024;2022-09-16T00:52:55;13.80;99.90
52275;DHT22;38228;50.940;4.024;2022-09-16T00:55:25;13.80;99.90
52275;DHT22;38228;50.940;4.024;2022-09-16T00:57:52;13.70;99.90
52275;DHT22;38228;50.940;4.024;2022-09-16T01:00:19;13.70;99.90
52275;DHT22;38228;50.940;4.024;2022-09-16T01:02:46;13.80;99.90
52275;DHT22;38228;50.940;4.024;2022-09-16T01:05:15;13.70;99.90
52275;DHT22;38228;50.940;4.024;2022-09-16T01:07:44;13.60;99.90
52275;DHT22;38228;50.940;4.024;2022-09-16T01:10:12;13.60;99.90
52275;DHT22;38228;50.940;4.024;2022-09-16T01:12:39;13.60;99.90
52275;DHT22;38228;50.940;4.024;2022-09-16T01:15:06;13.80;99.90
52275;DHT22;38228;50.940;4.024;2022-09-16T01:29:11;13.90;99.90
52275;DHT22;38228;50.940;4.024;2022-09-16T01:35:02;13.80;99.90
52275;DHT22;38228;50.940;4.024;2022-09-16T01:45:42;13.80;99.90
52275;DHT22;38228;50.940;4.024;2022-09-16T01:48:33;13.80;99.90
52275;DHT22;38228;50.940;4.024;2022-09-16T01:53:43;13.80;99.90
52275;DHT22;38228;50.940;4.024;2022-09-16T01:58:49;13.80;99.90
52275;DHT22;38228;50.940;4.024;2022-09-16T02:01:51;13.70;99.90
52275;DHT22;38228;50.940;4.024;2022-09-16T02:04:23;13.70;99.90
52275;DHT22;38228;50.940;4.024;2022-09-16T02:06:53;13.60;99.90
52275;DHT22;38228;50.940;4.024;2022-09-16T02:09:28;13.70;99.90
52275;DHT22;38228;50.940;4.024;2022-09-16T02:11:58;13.80;99.90
52275;DHT22;38228;50.940;4.024;2022-09-16T02:14:30;13.80;99.90
52275;DHT22;38228;50.940;4.024;2022-09-16T02:17:04;13.80;99.90
52275;DHT22;38228;50.940;4.024;2022-09-16T02:19:41;13.60;99.90
52275;DHT22;38228;50.940;4.024;2022-09-16T02:22:12;13.60;99.90
52275;DHT22;38228;50.940;4.024;2022-09-16T02:24:42;13.50;99.90
52275;DHT22;38228;50.940;4.024;2022-09-16T02:27:14;13.60;99.90
52275;DHT22;38228;50.940;4.024;2022-09-16T02:29:45;13.60;99.90
52275;DHT22;38228;50.940;4.024;2022-09-16T02:32:13;13.50;99.90
52275;DHT22;38228;50.940;4.024;2022-09-16T02:34:42;13.50;99.90
52275;DHT22;38228;50.940;4.024;2022-09-16T02:37:22;13.50;99.90
52275;DHT22;38228;50.940;4.024;2022-09-16T02:39:52;13.50;99.90
52275;DHT22;38228;50.940;4.024;2022-09-16T02:42:19;13.20;99.90
52275;DHT22;38228;50.940;4.024;2022-09-16T02:44:45;13.50;99.90
52275;DHT22;38228;50.940;4.024;2022-09-16T02:50:14;13.40;99.90
52275;DHT22;38228;50.940;4.024;2022-09-16T02:52:58;13.30;99.90
52275;DHT22;38228;50.940;4.024;2022-09-16T02:57:54;13.30;99.90
52275;DHT22;38228;50.940;4.024;2022-09-16T03:00:20;13.30;99.90
52275;DHT22;38228;50.940;4.024;2022-09-16T03:02:46;13.20;99.90
52275;DHT22;38228;50.940;4.024;2022-09-16T03:05:12;13.10;99.90
52275;DHT22;38228;50.940;4.024;2022-09-16T03:07:39;13.10;99.90
52275;DHT22;38228;50.940;4.024;2022-09-16T03:10:07;13.00;99.90
52275;DHT22;38228;50.940;4.024;2022-09-16T03:18:16;13.20;99.90
52275;DHT22;38228;50.940;4.024;2022-09-16T03:21:14;13.20;99.90
52275;DHT22;38228;50.940;4.024;2022-09-16T03:29:26;13.40;99.90
52275;DHT22;38228;50.940;4.024;2022-09-16T03:31:59;13.40;99.90
52275;DHT22;38228;50.940;4.024;2022-09-16T03:34:37;13.50;99.90
52275;DHT22;38228;50.940;4.024;2022-09-16T03:37:07;13.40;99.90
52275;DHT22;38228;50.940;4.024;2022-09-16T03:39:34;13.30;99.90
52275;DHT22;38228;50.940;4.024;2022-09-16T03:42:02;13.40;99.90
52275;DHT22;38228;50.940;4.024;2022-09-16T03:44:34;13.40;99.90
52275;DHT22;38228;50.940;4.024;2022-09-16T03:47:01;13.50;99.90
52275;DHT22;38228;50.940;4.024;2022-09-16T03:49:27;13.50;99.90
52275;DHT22;38228;50.940;4.024;2022-09-16T03:51:54;13.50;99.90
52275;DHT22;38228;50.940;4.024;2022-09-16T03:54:20;13.40;99.90
52275;DHT22;38228;50.940;4.024;2022-09-16T03:56:46;13.40;99.90
52275;DHT22;38228;50.940;4.024;2022-09-16T03:59:11;13.30;99.90
52275;DHT22;38228;50.940;4.024;2022-09-16T04:01:37;13.40;99.90
52275;DHT22;38228;50.940;4.024;2022-09-16T04:04:03;13.40;99.90
52275;DHT22;38228;50.940;4.024;2022-09-16T04:06:28;13.30;99.90
52275;DHT22;38228;50.940;4.024;2022-09-16T04:08:54;13.20;99.90
52275;DHT22;38228;50.940;4.024;2022-09-16T04:11:21;13.30;99.90
52275;DHT22;38228;50.940;4.024;2022-09-16T04:13:47;13.20;99.90
52275;DHT22;38228;50.940;4.024;2022-09-16T04:16:18;13.20;99.90
52275;DHT22;38228;50.940;4.024;2022-09-16T04:18:45;13.30;99.90
52275;DHT22;38228;50.940;4.024;2022-09-16T04:21:11;13.20;99.90
52275;DHT22;38228;50.940;4.024;2022-09-16T04:23:37;13.20;99.90
52275;DHT22;38228;50.940;4.024;2022-09-16T04:26:03;13.20;99.90
52275;DHT22;38228;50.940;4.024;2022-09-16T04:28:30;13.20;99.90
52275;DHT22;38228;50.940;4.024;2022-09-16T04:31:05;13.20;99.90
52275;DHT22;38228;50.940;4.024;2022-09-16T04:33:32;13.20;99.90
52275;DHT22;38228;50.940;4.024;2022-09-16T04:36:06;13.20;99.90
52275;DHT22;38228;50.940;4.024;2022-09-16T04:38:33;13.10;99.90
52275;DHT22;38228;50.940;4.024;2022-09-16T04:41:08;13.00;99.90
52275;DHT22;38228;50.940;4.024;2022-09-16T04:43:35;12.90;99.90
52275;DHT22;38228;50.940;4.024;2022-09-16T04:46:01;13.00;99.90
52275;DHT22;38228;50.940;4.024;2022-09-16T04:48:27;13.00;99.90
52275;DHT22;38228;50.940;4.024;2022-09-16T04:50:53;13.00;99.90
52275;DHT22;38228;50.940;4.024;2022-09-16T04:53:19;13.00;99.90
52275;DHT22;38228;50.940;4.024;2022-09-16T04:55:46;13.00;99.90
52275;DHT22;38228;50.940;4.024;2022-09-16T04:58:12;13.10;99.90
52275;DHT22;38228;50.940;4.024;2022-09-16T05:00:38;13.10;99.90
52275;DHT22;38228;50.940;4.024;2022-09-16T05:03:04;13.00;99.90
52275;DHT22;38228;50.940;4.024;2022-09-16T05:05:29;13.20;99.90
52275;DHT22;38228;50.940;4.024;2022-09-16T05:07:55;13.10;99.90
52275;DHT22;38228;50.940;4.024;2022-09-16T05:10:20;13.10;99.90
52275;DHT22;38228;50.940;4.024;2022-09-16T05:12:53;13.00;99.90
52275;DHT22;38228;50.940;4.024;2022-09-16T05:15:19;13.00;99.90
52275;DHT22;38228;50.940;4.024;2022-09-16T05:17:44;13.00;99.90
52275;DHT22;38228;50.940;4.024;2022-09-16T05:20:11;12.90;99.90
52275;DHT22;38228;50.940;4.024;2022-09-16T05:22:37;12.90;99.90
52275;DHT22;38228;50.940;4.024;2022-09-16T05:25:03;13.00;99.90
52275;DHT22;38228;50.940;4.024;2022-09-16T05:27:30;13.00;99.90
52275;DHT22;38228;50.940;4.024;2022-09-16T05:29:55;13.00;99.90
52275;DHT22;38228;50.940;4.024;2022-09-16T05:32:21;13.00;99.90
52275;DHT22;38228;50.940;4.024;2022-09-16T05:34:47;12.80;99.90
52275;DHT22;38228;50.940;4.024;2022-09-16T05:37:14;12.80;99.90
52275;DHT22;38228;50.940;4.024;2022-09-16T05:39:39;12.80;99.90
52275;DHT22;38228;50.940;4.024;2022-09-16T05:42:05;12.80;99.90
52275;DHT22;38228;50.940;4.024;2022-09-16T05:44:31;13.00;99.90
52275;DHT22;38228;50.940;4.024;2022-09-16T05:46:56;13.10;99.90
52275;DHT22;38228;50.940;4.024;2022-09-16T05:49:22;13.20;99.90
52275;DHT22;38228;50.940;4.024;2022-09-16T05:51:49;13.30;99.90
52275;DHT22;38228;50.940;4.024;2022-09-16T05:54:15;13.40;99.90
52275;DHT22;38228;50.940;4.024;2022-09-16T05:56:42;13.50;99.90
52275;DHT22;38228;50.940;4.024;2022-09-16T05:59:10;13.60;99.90
52275;DHT22;38228;50.940;4.024;2022-09-16T06:01:36;13.50;99.90
52275;DHT22;38228;50.940;4.024;2022-09-16T06:04:04;13.40;99.90
52275;DHT22;38228;50.940;4.024;2022-09-16T06:06:35;13.40;99.90
52275;DHT22;38228;50.940;4.024;2022-09-16T06:09:06;13.40;99.90
52275;DHT22;38228;50.940;4.024;2022-09-16T06:11:36;13.50;99.90
52275;DHT22;38228;50.940;4.024;2022-09-16T06:14:02;13.50;99.90
52275;DHT22;38228;50.940;4.024;2022-09-16T06:16:29;13.50;99.90
52275;DHT22;38228;50.940;4.024;2022-09-16T06:18:59;13.50;99.90
52275;DHT22;38228;50.940;4.024;2022-09-16T06:21:25;13.60;99.90
52275;DHT22;38228;50.940;4.024;2022-09-16T06:23:51;13.40;99.90
52275;DHT22;38228;50.940;4.024;2022-09-16T06:26:19;13.40;99.90
52275;DHT22;38228;50.940;4.024;2022-09-16T06:28:47;13.30;99.90
52275;DHT22;38228;50.940;4.024;2022-09-16T06:31:15;13.30;99.90
52275;DHT22;38228;50.940;4.024;2022-09-16T06:33:42;13.20;99.90
52275;DHT22;38228;50.940;4.024;2022-09-16T06:36:14;13.30;99.90
52275;DHT22;38228;50.940;4.024;2022-09-16T06:38:41;13.50;99.90
52275;DHT22;38228;50.940;4.024;2022-09-16T06:41:08;13.80;99.90
52275;DHT22;38228;50.940;4.024;2022-09-16T06:43:35;13.70;99.90
52275;DHT22;38228;50.940;4.024;2022-09-16T06:46:06;13.60;99.90
52275;DHT22;38228;50.940;4.024;2022-09-16T06:48:34;13.70;99.90
52275;DHT22;38228;50.940;4.024;2022-09-16T06:51:03;13.70;99.90
52275;DHT22;38228;50.940;4.024;2022-09-16T06:53:29;13.70;99.90
52275;DHT22;38228;50.940;4.024;2022-09-16T06:55:59;13.60;99.90
52275;DHT22;38228;50.940;4.024;2022-09-16T06:58:26;13.30;99.90
52275;DHT22;38228;50.940;4.024;2022-09-16T07:00:54;13.30;99.90
52275;DHT22;38228;50.940;4.024;2022-09-16T07:03:20;13.50;99.90
52275;DHT22;38228;50.940;4.024;2022-09-16T07:05:58;13.60;99.90
52275;DHT22;38228;50.940;4.024;2022-09-16T07:08:30;13.50;99.90
52275;DHT22;38228;50.940;4.024;2022-09-16T07:11:04;13.60;99.90
52275;DHT22;38228;50.940;4.024;2022-09-16T07:13:30;13.60;99.90
52275;DHT22;38228;50.940;4.024;2022-09-16T07:16:04;13.40;99.90
52275;DHT22;38228;50.940;4.024;2022-09-16T07:18:30;13.40;99.90
52275;DHT22;38228;50.940;4.024;2022-09-16T07:21:21;13.50;99.90
52275;DHT22;38228;50.940;4.024;2022-09-16T07:23:46;13.50;99.90
52275;DHT22;38228;50.940;4.024;2022-09-16T07:26:15;13.60;99.90
52275;DHT22;38228;50.940;4.024;2022-09-16T07:28:42;13.70;99.90
52275;DHT22;38228;50.940;4.024;2022-09-16T07:31:18;13.70;99.90
52275;DHT22;38228;50.940;4.024;2022-09-16T07:33:46;13.80;99.90
52275;DHT22;38228;50.940;4.024;2022-09-16T07:36:15;13.90;99.90
52275;DHT22;38228;50.940;4.024;2022-09-16T07:38:40;14.10;99.90
52275;DHT22;38228;50.940;4.024;2022-09-16T07:43:33;14.20;99.90
52275;DHT22;38228;50.940;4.024;2022-09-16T07:45:59;14.20;99.90
52275;DHT22;38228;50.940;4.024;2022-09-16T07:48:27;13.90;99.90
52275;DHT22;38228;50.940;4.024;2022-09-16T07:51:04;14.00;99.90
52275;DHT22;38228;50.940;4.024;2022-09-16T07:53:31;14.20;99.90
52275;DHT22;38228;50.940;4.024;2022-09-16T07:56:05;14.30;99.90
52275;DHT22;38228;50.940;4.024;2022-09-16T07:58:31;14.30;99.90
52275;DHT22;38228;50.940;4.024;2022-09-16T08:00:57;14.10;99.90
52275;DHT22;38228;50.940;4.024;2022-09-16T08:03:24;13.90;99.90
52275;DHT22;38228;50.940;4.024;2022-09-16T08:05:49;13.80;99.90
52275;DHT22;38228;50.940;4.024;2022-09-16T08:08:15;13.50;99.90
52275;DHT22;38228;50.940;4.024;2022-09-16T08:10:41;13.50;99.90
52275;DHT22;38228;50.940;4.024;2022-09-16T08:13:07;13.40;99.90
52275;DHT22;38228;50.940;4.024;2022-09-16T08:15:33;13.30;99.90
52275;DHT22;38228;50.940;4.024;2022-09-16T08:17:59;13.50;99.90
52275;DHT22;38228;50.940;4.024;2022-09-16T08:20:25;13.40;99.90
52275;DHT22;38228;50.940;4.024;2022-09-16T08:22:51;13.40;99.90
52275;DHT22;38228;50.940;4.024;2022-09-16T08:25:17;13.40;99.90
52275;DHT22;38228;50.940;4.024;2022-09-16T08:27:43;13.40;99.90
52275;DHT22;38228;50.940;4.024;2022-09-16T08:30:09;13.40;99.90
52275;DHT22;38228;50.940;4.024;2022-09-16T08:32:35;13.40;99.90
52275;DHT22;38228;50.940;4.024;2022-09-16T08:35:01;13.50;99.90
52275;DHT22;38228;50.940;4.024;2022-09-16T08:37:27;13.60;99.90
52275;DHT22;38228;50.940;4.024;2022-09-16T08:39:53;13.70;99.90
52275;DHT22;38228;50.940;4.024;2022-09-16T08:42:30;13.80;99.90
52275;DHT22;38228;50.940;4.024;2022-09-16T08:50:43;14.00;99.90
52275;DHT22;38228;50.940;4.024;2022-09-16T08:53:34;14.10;99.90
52275;DHT22;38228;50.940;4.024;2022-09-16T08:56:06;13.80;99.90
52275;DHT22;38228;50.940;4.024;2022-09-16T08:58:39;13.90;99.90
52275;DHT22;38228;50.940;4.024;2022-09-16T09:01:33;14.00;99.90
52275;DHT22;38228;50.940;4.024;2022-09-16T09:04:00;14.10;99.90
52275;DHT22;38228;50.940;4.024;2022-09-16T09:18:33;15.40;99.90
52275;DHT22;38228;50.940;4.024;2022-09-16T09:21:32;15.40;99.90
52275;DHT22;38228;50.940;4.024;2022-09-16T09:27:25;14.90;99.90
52275;DHT22;38228;50.940;4.024;2022-09-16T09:32:58;14.90;99.90
52275;DHT22;38228;50.940;4.024;2022-09-16T09:35:41;14.90;99.90
52275;DHT22;38228;50.940;4.024;2022-09-16T09:41:23;15.20;99.90
52275;DHT22;38228;50.940;4.024;2022-09-16T09:43:56;15.50;99.90
52275;DHT22;38228;50.940;4.024;2022-09-16T09:46:28;15.60;99.90
52275;DHT22;38228;50.940;4.024;2022-09-16T09:49:12;15.60;99.90
52275;DHT22;38228;50.940;4.024;2022-09-16T09:52:14;15.60;99.90
52275;DHT22;38228;50.940;4.024;2022-09-16T09:54:48;15.70;99.90
52275;DHT22;38228;50.940;4.024;2022-09-16T09:57:32;15.70;99.90
52275;DHT22;38228;50.940;4.024;2022-09-16T10:00:00;15.60;99.90
52275;DHT22;38228;50.940;4.024;2022-09-16T10:02:26;15.40;99.90
52275;DHT22;38228;50.940;4.024;2022-09-16T10:04:52;14.60;99.90
52275;DHT22;38228;50.940;4.024;2022-09-16T10:07:20;13.90;99.90
52275;DHT22;38228;50.940;4.024;2022-09-16T10:09:59;13.90;99.90
52275;DHT22;38228;50.940;4.024;2022-09-16T10:12:33;13.80;99.90
52275;DHT22;38228;50.940;4.024;2022-09-16T10:14:59;13.80;99.90
52275;DHT22;38228;50.940;4.024;2022-09-16T10:17:28;13.70;99.90
52275;DHT22;38228;50.940;4.024;2022-09-16T10:22:29;13.60;99.90
52275;DHT22;38228;50.940;4.024;2022-09-16T10:25:00;13.90;99.90
52275;DHT22;38228;50.940;4.024;2022-09-16T10:27:29;14.10;99.90
52275;DHT22;38228;50.940;4.024;2022-09-16T10:32:38;14.30;99.90
52275;DHT22;38228;50.940;4.024;2022-09-16T10:35:08;14.30;99.90
52275;DHT22;38228;50.940;4.024;2022-09-16T10:37:33;14.40;99.90
52275;DHT22;38228;50.940;4.024;2022-09-16T10:40:01;14.50;99.90
52275;DHT22;38228;50.940;4.024;2022-09-16T10:42:29;14.90;99.90
52275;DHT22;38228;50.940;4.024;2022-09-16T10:45:02;15.10;99.90
52275;DHT22;38228;50.940;4.024;2022-09-16T10:47:31;15.30;99.90
52275;DHT22;38228;50.940;4.024;2022-09-16T10:50:00;15.40;99.90
52275;DHT22;38228;50.940;4.024;2022-09-16T10:52:29;15.30;99.90
52275;DHT22;38228;50.940;4.024;2022-09-16T10:54:56;15.50;99.90
52275;DHT22;38228;50.940;4.024;2022-09-16T10:57:25;15.40;99.90
52275;DHT22;38228;50.940;4.024;2022-09-16T11:00:18;15.40;99.90
52275;DHT22;38228;50.940;4.024;2022-09-16T11:09:02;15.70;99.90
52275;DHT22;38228;50.940;4.024;2022-09-16T11:11:50;15.10;99.90
52275;DHT22;38228;50.940;4.024;2022-09-16T11:17:18;14.30;99.90
52275;DHT22;38228;50.940;4.024;2022-09-16T11:20:05;13.70;99.90
52275;DHT22;38228;50.940;4.024;2022-09-16T11:23:02;13.20;99.90
52275;DHT22;38228;50.940;4.024;2022-09-16T11:31:19;12.50;99.90
52275;DHT22;38228;50.940;4.024;2022-09-16T11:34:09;12.10;99.90
52275;DHT22;38228;50.940;4.024;2022-09-16T11:37:05;12.10;99.90
52275;DHT22;38228;50.940;4.024;2022-09-16T11:45:22;12.00;99.90
52275;DHT22;38228;50.940;4.024;2022-09-16T11:48:23;12.00;99.90
52275;DHT22;38228;50.940;4.024;2022-09-16T11:56:20;12.70;99.90
52275;DHT22;38228;50.940;4.024;2022-09-16T11:59:02;12.90;99.90
52275;DHT22;38228;50.940;4.024;2022-09-16T12:01:52;13.10;99.90
52275;DHT22;38228;50.940;4.024;2022-09-16T12:04:27;13.30;99.90
52275;DHT22;38228;50.940;4.024;2022-09-16T12:07:02;13.50;99.90
52275;DHT22;38228;50.940;4.024;2022-09-16T12:09:50;13.70;99.90
52275;DHT22;38228;50.940;4.024;2022-09-16T12:12:21;13.90;99.90
52275;DHT22;38228;50.940;4.024;2022-09-16T12:17:46;14.50;99.90
52275;DHT22;38228;50.940;4.024;2022-09-16T12:20:22;14.70;99.90
52275;DHT22;38228;50.940;4.024;2022-09-16T12:26:13;14.40;99.90
52275;DHT22;38228;50.940;4.024;2022-09-16T12:31:45;14.70;99.90
52275;DHT22;38228;50.940;4.024;2022-09-16T12:34:19;14.80;99.90
52275;DHT22;38228;50.940;4.024;2022-09-16T12:36:54;15.00;99.90
52275;DHT22;38228;50.940;4.024;2022-09-16T12:39:21;15.40;99.90
52275;DHT22;38228;50.940;4.024;2022-09-16T12:42:04;15.40;99.90
52275;DHT22;38228;50.940;4.024;2022-09-16T12:44:44;15.40;99.90
52275;DHT22;38228;50.940;4.024;2022-09-16T12:50:27;15.30;99.90
52275;DHT22;38228;50.940;4.024;2022-09-16T13:01:27;15.50;99.90
52275;DHT22;38228;50.940;4.024;2022-09-16T13:03:59;15.50;99.90
52275;DHT22;38228;50.940;4.024;2022-09-16T13:06:31;15.40;99.90
52275;DHT22;38228;50.940;4.024;2022-09-16T13:11:39;14.50;99.90
52275;DHT22;38228;50.940;4.024;2022-09-16T13:14:13;14.20;99.90
52275;DHT22;38228;50.940;4.024;2022-09-16T13:16:55;13.90;99.90
52275;DHT22;38228;50.940;4.024;2022-09-16T13:21:47;13.50;99.90
52275;DHT22;38228;50.940;4.024;2022-09-16T13:24:38;13.50;99.90
52275;DHT22;38228;50.940;4.024;2022-09-16T13:27:30;13.90;99.90
52275;DHT22;38228;50.940;4.024;2022-09-16T13:30:13;14.20;99.90
52275;DHT22;38228;50.940;4.024;2022-09-16T13:37:41;14.70;99.90
52275;DHT22;38228;50.940;4.024;2022-09-16T13:40:52;14.50;99.90
52275;DHT22;38228;50.940;4.024;2022-09-16T13:46:36;14.60;99.90
52275;DHT22;38228;50.940;4.024;2022-09-16T13:51:28;15.70;99.90
52275;DHT22;38228;50.940;4.024;2022-09-16T13:53:55;15.90;99.90
52275;DHT22;38228;50.940;4.024;2022-09-16T13:56:46;16.00;99.90
52275;DHT22;38228;50.940;4.024;2022-09-16T14:02:17;16.10;99.90
52275;DHT22;38228;50.940;4.024;2022-09-16T14:10:12;15.80;99.90
52275;DHT22;38228;50.940;4.024;2022-09-16T14:12:45;15.70;99.90
52275;DHT22;38228;50.940;4.024;2022-09-16T14:15:13;15.50;99.90
52275;DHT22;38228;50.940;4.024;2022-09-16T14:17:43;15.30;99.90
52275;DHT22;38228;50.940;4.024;2022-09-16T14:20:16;15.00;99.90
52275;DHT22;38228;50.940;4.024;2022-09-16T14:22:43;14.60;99.90
52275;DHT22;38228;50.940;4.024;2022-09-16T14:25:33;14.20;99.90
52275;DHT22;38228;50.940;4.024;2022-09-16T14:28:26;14.30;99.90
52275;DHT22;38228;50.940;4.024;2022-09-16T14:31:00;14.40;99.90
52275;DHT22;38228;50.940;4.024;2022-09-16T14:33:35;14.60;99.90
52275;DHT22;38228;50.940;4.024;2022-09-16T14:36:13;14.70;99.90
52275;DHT22;38228;50.940;4.024;2022-09-16T14:39:03;14.90;99.90
52275;DHT22;38228;50.940;4.024;2022-09-16T14:46:58;14.70;99.90
52275;DHT22;38228;50.940;4.024;2022-09-16T14:49:27;14.70;99.90
52275;DHT22;38228;50.940;4.024;2022-09-16T14:51:55;14.70;99.90
52275;DHT22;38228;50.940;4.024;2022-09-16T14:54:23;14.90;99.90
52275;DHT22;38228;50.940;4.024;2022-09-16T14:57:00;15.40;99.90
52275;DHT22;38228;50.940;4.024;2022-09-16T14:59:33;15.20;99.90
52275;DHT22;38228;50.940;4.024;2022-09-16T15:02:15;15.10;99.90
52275;DHT22;38228;50.940;4.024;2022-09-16T15:04:48;14.60;99.90
52275;DHT22;38228;50.940;4.024;2022-09-16T15:07:22;14.60;99.90
52275;DHT22;38228;50.940;4.024;2022-09-16T15:12:26;13.90;99.90
52275;DHT22;38228;50.940;4.024;2022-09-16T15:14:53;13.70;99.90
52275;DHT22;38228;50.940;4.024;2022-09-16T15:17:20;13.50;99.90
52275;DHT22;38228;50.940;4.024;2022-09-16T15:19:57;13.50;99.90
52275;DHT22;38228;50.940;4.024;2022-09-16T15:22:24;13.50;99.90
52275;DHT22;38228;50.940;4.024;2022-09-16T15:24:54;13.50;99.90
52275;DHT22;38228;50.940;4.024;2022-09-16T15:27:28;13.40;99.90
52275;DHT22;38228;50.940;4.024;2022-09-16T15:29:57;13.20;99.90
52275;DHT22;38228;50.940;4.024;2022-09-16T15:32:25;13.20;99.90
52275;DHT22;38228;50.940;4.024;2022-09-16T15:35:22;13.10;99.90
52275;DHT22;38228;50.940;4.024;2022-09-16T15:37:49;13.10;99.90
52275;DHT22;38228;50.940;4.024;2022-09-16T15:45:36;14.10;99.90
52275;DHT22;38228;50.940;4.024;2022-09-16T15:50:49;14.00;99.90
52275;DHT22;38228;50.940;4.024;2022-09-16T15:53:38;14.30;99.90
52275;DHT22;38228;50.940;4.024;2022-09-16T15:56:31;14.10;99.90
52275;DHT22;38228;50.940;4.024;2022-09-16T15:59:07;13.90;99.90
52275;DHT22;38228;50.940;4.024;2022-09-16T16:01:46;14.10;99.90
52275;DHT22;38228;50.940;4.024;2022-09-16T16:04:31;14.30;99.90
52275;DHT22;38228;50.940;4.024;2022-09-16T16:07:04;14.40;99.90
52275;DHT22;38228;50.940;4.024;2022-09-16T16:09:36;14.30;99.90
52275;DHT22;38228;50.940;4.024;2022-09-16T16:12:06;14.10;99.90
52275;DHT22;38228;50.940;4.024;2022-09-16T16:14:33;14.00;99.90
52275;DHT22;38228;50.940;4.024;2022-09-16T16:17:11;13.90;99.90
52275;DHT22;38228;50.940;4.024;2022-09-16T16:19:39;13.90;99.90
52275;DHT22;38228;50.940;4.024;2022-09-16T16:22:05;13.90;99.90
52275;DHT22;38228;50.940;4.024;2022-09-16T16:24:31;14.10;99.90
52275;DHT22;38228;50.940;4.024;2022-09-16T16:26:58;14.10;99.90
52275;DHT22;38228;50.940;4.024;2022-09-16T16:29:24;14.00;99.90
52275;DHT22;38228;50.940;4.024;2022-09-16T16:34:38;13.90;99.90
52275;DHT22;38228;50.940;4.024;2022-09-16T16:37:05;14.00;99.90
52275;DHT22;38228;50.940;4.024;2022-09-16T16:39:32;13.80;99.90
52275;DHT22;38228;50.940;4.024;2022-09-16T16:41:57;13.60;99.90
52275;DHT22;38228;50.940;4.024;2022-09-16T16:44:24;13.60;99.90
52275;DHT22;38228;50.940;4.024;2022-09-16T16:46:51;13.50;99.90
52275;DHT22;38228;50.940;4.024;2022-09-16T16:49:17;13.20;99.90
52275;DHT22;38228;50.940;4.024;2022-09-16T16:51:42;13.20;99.90
52275;DHT22;38228;50.940;4.024;2022-09-16T16:54:10;13.20;99.90
52275;DHT22;38228;50.940;4.024;2022-09-16T16:56:37;13.10;99.90
52275;DHT22;38228;50.940;4.024;2022-09-16T16:59:05;13.00;99.90
52275;DHT22;38228;50.940;4.024;2022-09-16T17:01:31;12.90;99.90
52275;DHT22;38228;50.940;4.024;2022-09-16T17:03:58;12.80;99.90
52275;DHT22;38228;50.940;4.024;2022-09-16T17:06:25;12.80;99.90
52275;DHT22;38228;50.940;4.024;2022-09-16T17:08:51;12.80;99.90
52275;DHT22;38228;50.940;4.024;2022-09-16T17:11:19;12.90;99.90
52275;DHT22;38228;50.940;4.024;2022-09-16T17:13:47;12.80;99.90
52275;DHT22;38228;50.940;4.024;2022-09-16T17:16:16;12.70;99.90
52275;DHT22;38228;50.940;4.024;2022-09-16T17:18:42;12.70;99.90
52275;DHT22;38228;50.940;4.024;2022-09-16T17:21:25;12.70;99.90
52275;DHT22;38228;50.940;4.024;2022-09-16T17:23:52;12.70;99.90
52275;DHT22;38228;50.940;4.024;2022-09-16T17:26:18;12.60;99.90
52275;DHT22;38228;50.940;4.024;2022-09-16T17:28:46;12.60;99.90
52275;DHT22;38228;50.940;4.024;2022-09-16T17:31:20;12.70;99.90
52275;DHT22;38228;50.940;4.024;2022-09-16T17:33:47;12.70;99.90
52275;DHT22;38228;50.940;4.024;2022-09-16T17:36:15;12.70;99.90
52275;DHT22;38228;50.940;4.024;2022-09-16T17:38:41;12.70;99.90
52275;DHT22;38228;50.940;4.024;2022-09-16T17:41:12;12.80;99.90
52275;DHT22;38228;50.940;4.024;2022-09-16T17:43:39;12.80;99.90
52275;DHT22;38228;50.940;4.024;2022-09-16T17:46:12;12.80;99.90
52275;DHT22;38228;50.940;4.024;2022-09-16T17:48:38;12.80;99.90
52275;DHT22;38228;50.940;4.024;2022-09-16T17:51:04;12.80;99.90
52275;DHT22;38228;50.940;4.024;2022-09-16T17:53:30;12.70;99.90
52275;DHT22;38228;50.940;4.024;2022-09-16T17:56:22;12.70;99.90
52275;DHT22;38228;50.940;4.024;2022-09-16T17:58:51;12.70;99.90
52275;DHT22;38228;50.940;4.024;2022-09-16T18:01:19;12.70;99.90
52275;DHT22;38228;50.940;4.024;2022-09-16T18:03:47;12.70;99.90
52275;DHT22;38228;50.940;4.024;2022-09-16T18:06:17;12.70;99.90
52275;DHT22;38228;50.940;4.024;2022-09-16T18:08:43;12.70;99.90
52275;DHT22;38228;50.940;4.024;2022-09-16T18:11:10;12.70;99.90
52275;DHT22;38228;50.940;4.024;2022-09-16T18:13:37;12.70;99.90
52275;DHT22;38228;50.940;4.024;2022-09-16T18:16:09;12.70;99.90
52275;DHT22;38228;50.940;4.024;2022-09-16T18:18:37;12.40;99.90
52275;DHT22;38228;50.940;4.024;2022-09-16T18:21:05;12.50;99.90
52275;DHT22;38228;50.940;4.024;2022-09-16T18:23:31;12.50;99.90
52275;DHT22;38228;50.940;4.024;2022-09-16T18:26:05;12.60;99.90
52275;DHT22;38228;50.940;4.024;2022-09-16T18:28:35;12.30;99.90
52275;DHT22;38228;50.940;4.024;2022-09-16T18:31:05;12.00;99.90
52275;DHT22;38228;50.940;4.024;2022-09-16T18:33:32;11.90;99.90
52275;DHT22;38228;50.940;4.024;2022-09-16T18:35:59;11.80;99.90
52275;DHT22;38228;50.940;4.024;2022-09-16T18:38:26;11.60;99.90
52275;DHT22;38228;50.940;4.024;2022-09-16T18:41:04;11.50;99.90
52275;DHT22;38228;50.940;4.024;2022-09-16T18:43:29;11.30;99.90
52275;DHT22;38228;50.940;4.024;2022-09-16T18:46:08;11.40;99.90
52275;DHT22;38228;50.940;4.024;2022-09-16T18:48:34;11.40;99.90